Hovedside
METAR-TAF:

METAR-TAF

Lufthavner :

Vardø, Norge

Vardø lufthavn. Svartnes

breddegrad: 70-21N, lengdegrad: 031-03E, høyde over havet: 12 m

Gjeldene værobservasjon

Denne rapporten ble laget for 40 minutter siden, klokken 07:50 UTC
Vind 14 kt fra Sør-sørøst
Temperatur -8°C
Luftfuktighet 85%
Trykk 1017 hPa
Sikt: 5000 m
Få skyer i en høyde av 500 ft
Spredte skyer i en høyde av 1100 ft
Brutte skyer i en høyde av 1500 ft
lett snø

METAR: ENSS 220750Z 15014KT 5000 -SN FEW005 SCT011 BKN015 M08/M10 Q1017 RMK WIND 500FT 15015KT

Tid: 09:30 (08:30 UTC)


TAF: fraværende

Værobservasjoner og værvarsel for over 4000 flyplasser (METAR- og TAF-rapporter).

Tilgjengelige stasjoner er representert av de røde og gule prikkene på kartet.

Hold musepekeren over prikken for å se navnet på stasjonen.

Klikk så for å se værobservasjoner og -varsler.

For å forandre kartet kan du klikke på den grønne knappen med svart kryss for å zoome inn, på den grønne knappen med strek for å zoome ut, eller på de grønne pilene for å se tilstøtende kart.


METAR-TAF: